createdAt,value
2018-07-14T00:00:59.299Z,16.33
2018-07-14T00:03:27.669Z,18.20
2018-07-14T00:05:55.307Z,18.13
2018-07-14T00:08:22.897Z,20.00
2018-07-14T00:10:50.482Z,20.50
2018-07-14T00:13:18.098Z,20.53
2018-07-14T00:15:45.655Z,22.30
2018-07-14T00:18:13.197Z,20.33
2018-07-14T00:20:40.721Z,17.60
2018-07-14T00:23:08.810Z,20.67
2018-07-14T00:25:42.018Z,17.20
2018-07-14T00:28:09.615Z,18.43
2018-07-14T00:30:37.238Z,16.60
2018-07-14T00:33:04.796Z,21.00
2018-07-14T00:35:32.365Z,16.70
2018-07-14T00:37:59.950Z,20.40
2018-07-14T00:40:27.558Z,18.47
2018-07-14T00:42:55.135Z,20.87
2018-07-14T00:45:22.686Z,26.90
2018-07-14T00:47:50.241Z,30.90
2018-07-14T00:50:17.837Z,20.90
2018-07-14T00:52:45.391Z,22.60
2018-07-14T00:55:12.915Z,19.70
2018-07-14T00:57:40.499Z,22.83
2018-07-14T01:00:08.081Z,25.27
2018-07-14T01:02:35.666Z,23.43
2018-07-14T01:05:03.261Z,19.57
2018-07-14T01:07:30.872Z,22.23
2018-07-14T01:09:58.438Z,25.10
2018-07-14T01:12:26.187Z,17.73
2018-07-14T01:14:53.726Z,19.67
2018-07-14T01:17:21.270Z,19.77
2018-07-14T01:19:49.223Z,17.57
2018-07-14T01:22:16.749Z,21.77
2018-07-14T01:24:44.322Z,22.33
2018-07-14T01:27:11.879Z,17.97
2018-07-14T01:29:39.438Z,20.20
2018-07-14T01:32:06.983Z,21.67
2018-07-14T01:34:34.588Z,18.63
2018-07-14T01:37:02.184Z,17.90
2018-07-14T01:39:29.719Z,20.10
2018-07-14T01:41:57.295Z,33.73
2018-07-14T01:44:24.822Z,27.70
2018-07-14T01:46:52.341Z,21.30
2018-07-14T01:49:19.878Z,18.50
2018-07-14T01:51:47.387Z,20.57
2018-07-14T01:54:14.918Z,17.83
2018-07-14T01:56:42.491Z,15.97
2018-07-14T01:59:10.042Z,16.53
2018-07-14T02:01:37.573Z,21.40
2018-07-14T02:04:05.133Z,17.00
2018-07-14T02:06:32.652Z,18.20
2018-07-14T02:09:00.242Z,27.37
2018-07-14T02:11:27.795Z,22.83
2018-07-14T02:13:55.309Z,19.27
2018-07-14T02:16:22.858Z,19.57
2018-07-14T02:18:50.473Z,25.33
2018-07-14T02:21:18.026Z,19.30
2018-07-14T02:23:45.550Z,18.57
2018-07-14T02:26:13.154Z,20.40
2018-07-14T02:28:40.675Z,17.50
2018-07-14T02:31:08.218Z,18.20
2018-07-14T02:33:35.789Z,14.90
2018-07-14T02:36:03.390Z,19.03
2018-07-14T02:38:30.966Z,19.27
2018-07-14T02:40:58.537Z,28.23
2018-07-14T02:43:26.078Z,22.40
2018-07-14T02:45:53.635Z,20.10
2018-07-14T02:48:21.210Z,17.83
2018-07-14T02:50:48.758Z,17.33
2018-07-14T02:53:16.267Z,17.00
2018-07-14T02:55:43.896Z,21.03
2018-07-14T02:58:11.446Z,19.07
2018-07-14T03:00:38.986Z,17.17
2018-07-14T03:03:06.551Z,17.50
2018-07-14T03:05:34.095Z,16.93
2018-07-14T03:08:01.688Z,17.60
2018-07-14T03:10:29.275Z,18.63
2018-07-14T03:12:57.022Z,17.03
2018-07-14T03:15:24.554Z,17.93
2018-07-14T03:17:52.146Z,20.27
2018-07-14T03:20:19.715Z,18.23
2018-07-14T03:22:47.321Z,17.07
2018-07-14T03:25:14.879Z,20.60
2018-07-14T03:27:42.400Z,16.90
2018-07-14T03:30:09.959Z,20.87
2018-07-14T03:32:37.559Z,23.10
2018-07-14T03:35:05.126Z,18.13
2018-07-14T03:37:32.662Z,24.23
2018-07-14T03:40:00.228Z,24.07
2018-07-14T03:42:27.782Z,18.70
2018-07-14T03:44:55.353Z,27.83
2018-07-14T03:47:22.950Z,18.90
2018-07-14T03:49:50.479Z,21.53
2018-07-14T03:52:18.038Z,16.50
2018-07-14T03:54:45.605Z,18.07
2018-07-14T03:57:13.174Z,20.63
2018-07-14T03:59:40.714Z,20.10
2018-07-14T04:02:08.274Z,21.07
2018-07-14T04:04:35.815Z,20.07
2018-07-14T04:07:03.405Z,24.97
2018-07-14T04:09:31.043Z,24.47
2018-07-14T04:11:58.619Z,25.73
2018-07-14T04:14:26.166Z,27.97
2018-07-14T04:16:53.722Z,26.67
2018-07-14T04:19:21.270Z,27.10
2018-07-14T04:21:48.811Z,23.07
2018-07-14T04:24:16.442Z,24.20
2018-07-14T04:26:44.056Z,26.33
2018-07-14T04:29:11.566Z,21.23
2018-07-14T04:31:39.118Z,25.57
2018-07-14T04:34:06.648Z,30.80
2018-07-14T04:36:34.210Z,23.37
2018-07-14T04:39:01.823Z,24.33
2018-07-14T04:41:29.342Z,26.50
2018-07-14T04:43:56.910Z,25.17
2018-07-14T04:46:24.442Z,32.17
2018-07-14T04:48:52.027Z,24.90
2018-07-14T04:51:19.578Z,30.00
2018-07-14T04:53:47.110Z,24.60
2018-07-14T04:56:14.686Z,27.33
2018-07-14T04:58:42.223Z,27.37
2018-07-14T05:01:09.777Z,26.23
2018-07-14T05:03:37.320Z,25.17
2018-07-14T05:06:05.522Z,29.43
2018-07-14T05:08:33.066Z,28.17
2018-07-14T05:11:00.631Z,25.30
2018-07-14T05:13:28.202Z,30.70
2018-07-14T05:15:55.750Z,21.57
2018-07-14T05:18:23.334Z,29.70
2018-07-14T05:20:50.886Z,24.47
2018-07-14T05:23:18.433Z,22.90
2018-07-14T05:25:45.971Z,20.80
2018-07-14T05:28:13.526Z,25.07
2018-07-14T05:30:41.091Z,25.93
2018-07-14T05:33:08.615Z,24.07
2018-07-14T05:35:36.230Z,26.67
2018-07-14T05:38:03.863Z,22.37
2018-07-14T05:40:31.398Z,22.67
2018-07-14T05:42:59.218Z,18.70
2018-07-14T05:45:26.938Z,22.10
2018-07-14T05:47:54.538Z,25.33
2018-07-14T05:50:22.862Z,20.57
2018-07-14T05:52:50.498Z,22.57
2018-07-14T05:55:18.050Z,20.17
2018-07-14T05:57:45.618Z,18.07
2018-07-14T06:00:13.217Z,20.90
2018-07-14T06:02:40.761Z,23.93
2018-07-14T06:05:08.378Z,19.33
2018-07-14T06:07:35.936Z,19.30
2018-07-14T06:10:04.226Z,19.27
2018-07-14T06:12:32.930Z,20.20
2018-07-14T06:15:00.523Z,16.97
2018-07-14T06:17:28.090Z,20.27
2018-07-14T06:19:55.667Z,21.77
2018-07-14T06:22:23.230Z,21.13
2018-07-14T06:24:50.869Z,21.97
2018-07-14T06:27:18.430Z,24.50
2018-07-14T06:29:46.011Z,18.30
2018-07-14T06:32:13.767Z,20.87
2018-07-14T06:34:41.499Z,17.97
2018-07-14T06:37:09.066Z,24.87
2018-07-14T06:39:36.604Z,16.33
2018-07-14T06:42:04.198Z,20.03
2018-07-14T06:44:31.742Z,17.63
2018-07-14T06:46:59.330Z,13.67
2018-07-14T06:49:26.885Z,15.77
2018-07-14T06:51:54.463Z,17.00
2018-07-14T06:54:22.105Z,16.87
2018-07-14T06:56:49.573Z,18.17
2018-07-14T06:59:17.139Z,15.30
2018-07-14T07:01:44.670Z,14.40
2018-07-14T07:04:12.230Z,13.70
2018-07-14T07:06:39.773Z,19.23
2018-07-14T07:09:07.372Z,18.80
2018-07-14T07:11:34.967Z,14.00
2018-07-14T07:14:02.600Z,17.03
2018-07-14T07:16:30.149Z,15.53
2018-07-14T07:18:57.710Z,13.77
2018-07-14T07:21:25.313Z,15.27
2018-07-14T07:23:52.857Z,18.30
2018-07-14T07:26:20.406Z,13.67
2018-07-14T07:28:48.079Z,16.13
2018-07-14T07:31:15.699Z,16.33
2018-07-14T07:33:43.299Z,12.57
2018-07-14T07:36:10.875Z,14.33
2018-07-14T07:38:38.534Z,16.17
2018-07-14T07:41:06.154Z,13.37
2018-07-14T07:43:33.789Z,11.43
2018-07-14T07:46:01.379Z,14.50
2018-07-14T07:48:28.961Z,16.97
2018-07-14T07:50:56.566Z,15.07
2018-07-14T07:53:24.077Z,12.17
2018-07-14T07:55:51.610Z,14.60
2018-07-14T07:58:19.147Z,15.40
2018-07-14T08:00:46.730Z,13.30
2018-07-14T08:03:14.271Z,15.00
2018-07-14T08:05:41.821Z,11.87
2018-07-14T08:08:09.414Z,12.13
2018-07-14T08:10:36.990Z,12.37
2018-07-14T08:13:04.699Z,17.00
2018-07-14T08:15:32.290Z,20.33
2018-07-14T08:17:59.865Z,13.97
2018-07-14T08:20:27.397Z,20.77
2018-07-14T08:22:55.118Z,20.33
2018-07-14T08:25:22.591Z,13.03
2018-07-14T08:27:50.170Z,14.07
2018-07-14T08:30:17.739Z,12.10
2018-07-14T08:32:45.341Z,13.20
2018-07-14T08:35:12.914Z,17.00
2018-07-14T08:37:40.596Z,13.83
2018-07-14T08:40:08.199Z,10.67
2018-07-14T08:42:36.735Z,9.90
2018-07-14T08:45:04.463Z,9.70
2018-07-14T08:47:32.053Z,11.50
2018-07-14T08:49:59.661Z,10.90
2018-07-14T08:52:27.192Z,12.33
2018-07-14T08:54:54.753Z,11.87
2018-07-14T08:57:22.350Z,12.87
2018-07-14T08:59:49.919Z,13.13
2018-07-14T09:02:17.458Z,10.83
2018-07-14T09:04:44.985Z,12.50
2018-07-14T09:07:12.549Z,9.63
2018-07-14T09:09:40.109Z,8.00
2018-07-14T09:12:07.709Z,8.53
2018-07-14T09:14:35.230Z,7.83
2018-07-14T09:17:02.818Z,12.30
2018-07-14T09:19:30.367Z,8.83
2018-07-14T09:21:57.991Z,7.67
2018-07-14T09:24:25.538Z,6.93
2018-07-14T09:26:53.574Z,7.23
2018-07-14T09:29:21.175Z,8.07
2018-07-14T09:31:48.706Z,6.90
2018-07-14T09:34:16.250Z,6.20
2018-07-14T09:36:43.863Z,7.63
2018-07-14T09:39:11.382Z,7.10
2018-07-14T09:41:38.950Z,6.63
2018-07-14T09:44:06.573Z,8.87
2018-07-14T09:46:34.130Z,7.87
2018-07-14T09:49:01.711Z,6.93
2018-07-14T09:51:29.276Z,9.17
2018-07-14T09:53:56.827Z,7.03
2018-07-14T09:56:24.354Z,8.33
2018-07-14T09:58:51.893Z,7.10
2018-07-14T10:01:19.442Z,7.00
2018-07-14T10:03:47.046Z,6.20
2018-07-14T10:06:14.724Z,10.57
2018-07-14T10:08:42.233Z,7.50
2018-07-14T10:11:09.793Z,6.63
2018-07-14T10:13:37.341Z,6.90
2018-07-14T10:16:04.982Z,5.17
2018-07-14T10:18:32.508Z,5.67
2018-07-14T10:21:00.055Z,4.77
2018-07-14T10:23:27.650Z,5.43
2018-07-14T10:25:55.365Z,4.97
2018-07-14T10:28:22.874Z,6.27
2018-07-14T10:30:50.426Z,3.80
2018-07-14T10:33:18.051Z,4.70
2018-07-14T10:35:45.594Z,5.67
2018-07-14T10:38:13.115Z,4.47
2018-07-14T10:40:40.681Z,4.50
2018-07-14T10:43:08.210Z,3.90
2018-07-14T10:45:35.947Z,3.87
2018-07-14T10:48:03.516Z,4.53
2018-07-14T10:50:31.060Z,4.00
2018-07-14T10:52:58.620Z,4.57
2018-07-14T10:55:26.138Z,4.00
2018-07-14T10:57:53.649Z,4.23
2018-07-14T11:00:21.278Z,3.77
2018-07-14T11:02:48.807Z,3.63
2018-07-14T11:05:16.375Z,3.80
2018-07-14T11:07:43.905Z,3.67
2018-07-14T11:10:11.490Z,3.73
2018-07-14T11:12:39.049Z,3.27
2018-07-14T11:15:06.614Z,3.03
2018-07-14T11:17:34.181Z,3.07
2018-07-14T11:20:01.867Z,3.07
2018-07-14T11:22:29.482Z,3.53
2018-07-14T11:24:57.018Z,3.23
2018-07-14T11:27:24.600Z,3.37
2018-07-14T11:29:52.182Z,4.17
2018-07-14T11:32:19.799Z,3.73
2018-07-14T11:34:47.354Z,2.97
2018-07-14T11:37:15.510Z,3.37
2018-07-14T11:39:43.072Z,2.80
2018-07-14T11:42:10.670Z,2.80
2018-07-14T11:44:38.202Z,2.73
2018-07-14T11:47:05.794Z,3.30
2018-07-14T11:49:33.340Z,3.00
2018-07-14T11:52:01.346Z,3.07
2018-07-14T11:54:29.206Z,3.17
2018-07-14T11:56:56.774Z,3.30
2018-07-14T11:59:24.507Z,3.10
2018-07-14T12:01:52.123Z,2.60
2018-07-14T12:04:19.657Z,3.10
2018-07-14T12:06:47.202Z,2.60
2018-07-14T12:09:14.783Z,2.87
2018-07-14T12:11:42.375Z,2.63
2018-07-14T12:14:09.915Z,3.30
2018-07-14T12:16:37.558Z,4.00
2018-07-14T12:19:05.258Z,4.60
2018-07-14T12:21:33.306Z,2.87
2018-07-14T12:24:01.015Z,2.70
2018-07-14T12:26:28.839Z,2.73
2018-07-14T12:28:56.650Z,3.23
2018-07-14T12:31:24.219Z,3.17
2018-07-14T12:33:51.746Z,2.80
2018-07-14T12:36:19.338Z,2.70
2018-07-14T12:38:47.058Z,4.07
2018-07-14T12:41:14.706Z,3.20
2018-07-14T12:43:42.466Z,5.20
2018-07-14T12:46:10.116Z,7.40
2018-07-14T12:48:37.876Z,2.83
2018-07-14T12:51:05.766Z,3.20
2018-07-14T12:53:33.406Z,2.67
2018-07-14T12:56:00.995Z,2.57
2018-07-14T12:58:28.686Z,2.73
2018-07-14T13:00:56.275Z,2.67
2018-07-14T13:03:23.938Z,2.67
2018-07-14T13:05:51.538Z,3.13
2018-07-14T13:08:19.090Z,2.93
2018-07-14T13:10:46.743Z,2.80
2018-07-14T13:13:14.338Z,2.73
2018-07-14T13:15:41.975Z,6.87
2018-07-14T13:18:09.511Z,2.70
2018-07-14T13:20:37.059Z,3.57
2018-07-14T13:23:04.726Z,2.80
2018-07-14T13:25:32.277Z,2.77
2018-07-14T13:27:59.891Z,2.37
2018-07-14T13:30:27.906Z,2.90
2018-07-14T13:32:55.433Z,2.50
2018-07-14T13:35:23.014Z,2.47
2018-07-14T13:37:50.577Z,2.10
2018-07-14T13:40:18.259Z,2.60
2018-07-14T13:42:45.814Z,2.63
2018-07-14T13:45:15.282Z,2.67
2018-07-14T13:47:42.833Z,2.60
2018-07-14T13:50:10.394Z,2.70
2018-07-14T13:52:37.953Z,9.93
2018-07-14T13:55:05.786Z,3.83
2018-07-14T13:57:33.341Z,2.73
2018-07-14T14:00:00.980Z,2.67
2018-07-14T14:02:28.526Z,2.23
2018-07-14T14:04:56.101Z,2.10
2018-07-14T14:07:23.690Z,2.40
2018-07-14T14:09:51.199Z,2.40
2018-07-14T14:12:18.754Z,2.23
2018-07-14T14:14:46.499Z,2.07
2018-07-14T14:17:14.082Z,2.60
2018-07-14T14:19:41.663Z,4.10
2018-07-14T14:22:09.240Z,2.47
2018-07-14T14:24:36.837Z,2.90
2018-07-14T14:27:04.451Z,2.50
2018-07-14T14:29:32.034Z,1.80
2018-07-14T14:31:59.582Z,2.30
2018-07-14T14:34:27.177Z,2.13
2018-07-14T14:36:54.752Z,2.23
2018-07-14T14:39:22.291Z,2.10
2018-07-14T14:41:49.898Z,3.07
2018-07-14T14:44:17.439Z,2.97
2018-07-14T14:46:45.024Z,4.60
2018-07-14T14:49:12.538Z,2.43
2018-07-14T14:51:40.170Z,1.90
2018-07-14T14:54:07.730Z,2.13
2018-07-14T14:56:35.280Z,1.77
2018-07-14T14:59:03.017Z,2.00
2018-07-14T15:01:30.548Z,1.63
2018-07-14T15:03:58.134Z,2.00
2018-07-14T15:06:25.703Z,2.07
2018-07-14T15:08:53.254Z,2.40
2018-07-14T15:11:20.807Z,1.90
2018-07-14T15:13:48.333Z,1.90
2018-07-14T15:16:15.896Z,2.70
2018-07-14T15:18:43.425Z,3.27
2018-07-14T15:21:10.992Z,2.33
2018-07-14T15:23:38.570Z,7.07
2018-07-14T15:26:06.189Z,4.20
2018-07-14T15:28:33.778Z,3.53
2018-07-14T15:31:01.395Z,2.03
2018-07-14T15:33:28.990Z,1.83
2018-07-14T15:35:56.562Z,2.17
2018-07-14T15:38:24.099Z,3.87
2018-07-14T15:40:51.666Z,1.80
2018-07-14T15:43:19.270Z,2.23
2018-07-14T15:45:46.862Z,1.93
2018-07-14T15:48:14.470Z,1.87
2018-07-14T15:50:42.066Z,1.80
2018-07-14T15:53:09.645Z,1.60
2018-07-14T15:55:37.222Z,2.30
2018-07-14T15:58:04.851Z,2.50
2018-07-14T16:00:32.462Z,2.63
2018-07-14T16:03:00.005Z,5.27
2018-07-14T16:05:27.552Z,2.07
2018-07-14T16:07:55.163Z,3.20
2018-07-14T16:10:22.735Z,4.90
2018-07-14T16:12:50.378Z,1.80
2018-07-14T16:15:18.025Z,1.87
2018-07-14T16:17:45.602Z,4.57
2018-07-14T16:20:13.431Z,4.80
2018-07-14T16:22:40.972Z,2.47
2018-07-14T16:25:08.562Z,2.10
2018-07-14T16:27:36.154Z,2.20
2018-07-14T16:30:03.778Z,3.23
2018-07-14T16:32:31.317Z,2.70
2018-07-14T16:34:59.026Z,2.20
2018-07-14T16:37:26.559Z,2.50
2018-07-14T16:39:54.158Z,2.33
2018-07-14T16:42:21.711Z,2.60
2018-07-14T16:44:49.297Z,3.63
2018-07-14T16:47:16.878Z,2.80
2018-07-14T16:49:44.430Z,2.77
2018-07-14T16:52:12.062Z,3.10
2018-07-14T16:54:39.595Z,2.80
2018-07-14T16:57:07.181Z,2.53
2018-07-14T16:59:34.846Z,2.33
2018-07-14T17:02:02.462Z,2.50
2018-07-14T17:04:30.090Z,2.40
2018-07-14T17:06:57.574Z,2.87
2018-07-14T17:09:25.117Z,3.67
2018-07-14T17:11:52.670Z,2.60
2018-07-14T17:14:20.207Z,2.70
2018-07-14T17:16:47.882Z,3.23
2018-07-14T17:19:15.434Z,2.70
2018-07-14T17:21:42.990Z,2.57
2018-07-14T17:24:10.603Z,3.47
2018-07-14T17:26:38.134Z,3.50
2018-07-14T17:29:05.742Z,2.90
2018-07-14T17:31:33.290Z,2.50
2018-07-14T17:34:00.850Z,4.83
2018-07-14T17:36:28.437Z,2.83
2018-07-14T17:38:55.990Z,2.17
2018-07-14T17:41:23.610Z,2.40
2018-07-14T17:43:51.217Z,9.93
2018-07-14T17:46:18.707Z,2.57
2018-07-14T17:48:46.274Z,4.20
2018-07-14T17:51:13.995Z,2.50
2018-07-14T17:53:41.561Z,2.47
2018-07-14T17:56:09.129Z,2.37
2018-07-14T17:58:36.653Z,2.60
2018-07-14T18:01:04.247Z,2.47
2018-07-14T18:03:31.814Z,3.17
2018-07-14T18:05:59.375Z,2.33
2018-07-14T18:08:26.905Z,3.07
2018-07-14T18:10:54.522Z,2.70
2018-07-14T18:13:22.134Z,6.43
2018-07-14T18:15:49.702Z,2.33
2018-07-14T18:18:17.262Z,2.47
2018-07-14T18:20:44.858Z,2.70
2018-07-14T18:23:12.420Z,3.07
2018-07-14T18:25:39.962Z,2.80
2018-07-14T18:28:07.537Z,2.87
2018-07-14T18:30:35.097Z,2.87
2018-07-14T18:33:02.695Z,3.10
2018-07-14T18:35:30.282Z,3.63
2018-07-14T18:37:57.872Z,2.87
2018-07-14T18:40:25.450Z,3.67
2018-07-14T18:42:53.030Z,4.10
2018-07-14T18:45:20.644Z,4.90
2018-07-14T18:47:48.218Z,3.77
2018-07-14T18:50:15.774Z,3.10
2018-07-14T18:52:43.449Z,3.50
2018-07-14T18:55:11.029Z,4.10
2018-07-14T18:57:39.506Z,3.77
2018-07-14T19:00:07.254Z,4.20
2018-07-14T19:02:34.819Z,4.60
2018-07-14T19:05:02.704Z,4.10
2018-07-14T19:07:30.258Z,6.17
2018-07-14T19:09:57.863Z,4.27
2018-07-14T19:12:25.456Z,4.50
2018-07-14T19:14:53.058Z,4.57
2018-07-14T19:17:20.646Z,6.17
2018-07-14T19:19:49.286Z,5.53
2018-07-14T19:22:16.852Z,6.67
2018-07-14T19:24:45.006Z,8.63
2018-07-14T19:27:12.559Z,9.77
2018-07-14T19:29:40.134Z,8.47
2018-07-14T19:32:07.814Z,9.40
2018-07-14T19:34:35.338Z,11.10
2018-07-14T19:37:02.919Z,10.47
2018-07-14T19:39:30.457Z,7.73
2018-07-14T19:41:58.134Z,7.13
2018-07-14T19:44:25.750Z,7.27
2018-07-14T19:46:53.386Z,5.93
2018-07-14T19:49:20.920Z,5.40
2018-07-14T19:51:48.474Z,5.93
2018-07-14T19:54:16.147Z,5.27
2018-07-14T19:56:43.686Z,5.50
2018-07-14T19:59:11.246Z,6.00
2018-07-14T20:01:38.791Z,5.60
2018-07-14T20:04:06.511Z,5.67
2018-07-14T20:06:34.061Z,6.67
2018-07-14T20:09:01.719Z,6.73
2018-07-14T20:11:29.393Z,8.73
2018-07-14T20:13:57.135Z,8.97
2018-07-14T20:16:24.698Z,13.77
2018-07-14T20:18:52.984Z,13.57
2018-07-14T20:21:20.575Z,12.00
2018-07-14T20:23:48.170Z,16.07
2018-07-14T20:26:15.706Z,13.57
2018-07-14T20:28:44.623Z,11.57
2018-07-14T20:31:14.348Z,13.50
2018-07-14T20:33:45.318Z,14.53
2018-07-14T20:36:16.181Z,14.67
2018-07-14T20:38:46.744Z,12.10
2018-07-14T20:41:16.164Z,9.57
2018-07-14T20:43:45.906Z,8.50
2018-07-14T20:46:13.546Z,10.90
2018-07-14T20:48:41.083Z,9.60
2018-07-14T20:51:08.682Z,13.70
2018-07-14T20:53:36.250Z,11.83
2018-07-14T20:56:03.878Z,13.97
2018-07-14T20:58:31.474Z,11.80
2018-07-14T21:00:59.077Z,10.47
2018-07-14T21:03:26.619Z,13.83
2018-07-14T21:05:54.655Z,13.37
2018-07-14T21:08:22.310Z,11.53
2018-07-14T21:10:49.848Z,14.93
2018-07-14T21:13:17.466Z,10.60
2018-07-14T21:15:45.043Z,9.57
2018-07-14T21:18:12.681Z,12.70
2018-07-14T21:20:40.253Z,9.47
2018-07-14T21:23:07.814Z,11.33
2018-07-14T21:25:35.394Z,13.13
2018-07-14T21:28:02.959Z,8.80
2018-07-14T21:30:30.539Z,8.80
2018-07-14T21:32:58.179Z,7.80
2018-07-14T21:35:25.733Z,8.60
2018-07-14T21:37:53.332Z,8.93
2018-07-14T21:40:21.046Z,9.63
2018-07-14T21:42:48.550Z,11.23
2018-07-14T21:45:16.123Z,7.77
2018-07-14T21:47:43.649Z,7.60
2018-07-14T21:50:11.367Z,7.77
2018-07-14T21:52:38.906Z,8.27
2018-07-14T21:55:06.500Z,8.37
2018-07-14T21:57:34.161Z,9.20
2018-07-14T22:00:01.871Z,8.57
2018-07-14T22:02:29.435Z,6.80
2018-07-14T22:04:57.570Z,8.97
2018-07-14T22:07:25.161Z,6.63
2018-07-14T22:09:53.264Z,8.50
2018-07-14T22:12:21.036Z,6.93
2018-07-14T22:14:48.946Z,10.53
2018-07-14T22:17:16.893Z,8.30
2018-07-14T22:19:44.635Z,7.37
2018-07-14T22:22:12.610Z,7.20
2018-07-14T22:24:40.286Z,7.17
2018-07-14T22:27:08.091Z,7.53
2018-07-14T22:29:35.640Z,6.90
2018-07-14T22:32:03.459Z,8.33
2018-07-14T22:34:31.055Z,7.00
2018-07-14T22:36:58.674Z,7.57
2018-07-14T22:39:26.551Z,7.10
2018-07-14T22:41:54.091Z,7.37
2018-07-14T22:44:21.630Z,7.43
2018-07-14T22:46:49.754Z,7.60
2018-07-14T22:49:17.662Z,7.87
2018-07-14T22:51:45.338Z,9.20
2018-07-14T22:54:13.119Z,7.97
2018-07-14T22:56:40.861Z,7.30
2018-07-14T22:59:08.498Z,10.10
2018-07-14T23:01:36.053Z,8.37
2018-07-14T23:04:03.806Z,7.17
2018-07-14T23:06:31.470Z,8.00
2018-07-14T23:08:59.376Z,36.90
2018-07-14T23:11:27.080Z,35.33
2018-07-14T23:13:54.743Z,20.97
2018-07-14T23:16:22.480Z,10.07
2018-07-14T23:18:50.075Z,10.10
2018-07-14T23:21:17.748Z,9.63
2018-07-14T23:23:45.415Z,6.67
2018-07-14T23:26:13.010Z,6.23
2018-07-14T23:28:41.174Z,5.67
2018-07-14T23:31:09.327Z,6.00
2018-07-14T23:33:37.362Z,5.63
2018-07-14T23:36:05.756Z,5.17
2018-07-14T23:38:33.582Z,5.50
2018-07-14T23:41:01.464Z,5.03
2018-07-14T23:43:29.307Z,7.23
2018-07-14T23:45:57.109Z,5.23
2018-07-14T23:48:24.938Z,5.80
2018-07-14T23:50:52.559Z,10.33
2018-07-14T23:53:20.381Z,5.13
2018-07-14T23:55:48.178Z,5.83
2018-07-14T23:58:15.927Z,5.30
